.
WxDataArchive / Data Records for 2012-01-22
2012-01-21 January 2012 2012-01-23

Data Records for Sunday, 22 January 2012

Time	Temp	Chill	HIndex	Humid	Dewpt	 Wind 	HiWind	WindDir	Rain 	Barom 
-----	----	-----	------	-----	-----	------	------	-------	-----	----- 
00:00	14.9	14.9	14.9	83	10.7	2	4	112	0.00	30.254 
00:05	15.1	15.1	15.1	83	10.9	2	4	112	0.00	30.254 
00:10	15.2	15.2	15.2	83	11.0	1	3	68	0.00	30.254 
00:15	15.4	15.4	15.4	83	11.2	2	3	90	0.00	30.257 
00:20	15.6	15.6	15.6	83	11.4	2	5	90	0.00	30.257 
00:25	15.6	15.6	15.6	83	11.4	1	3	90	0.00	30.257 
00:30	15.7	15.7	15.7	83	11.5	1	3	90	0.00	30.252 
00:35	15.9	15.9	15.9	83	11.7	2	5	90	0.00	30.252 
00:40	16.1	16.1	16.1	83	11.9	1	4	90	0.00	30.252 
00:45	16.1	16.1	16.1	83	11.9	1	3	90	0.00	30.246 
00:50	16.1	16.1	16.1	83	11.9	1	3	90	0.00	30.246 
00:55	16.1	16.1	16.1	80	11.0	2	4	90	0.00	30.246 
01:00	16.1	16.1	16.1	82	11.6	2	4	90	0.00	30.233 
01:05	15.9	15.9	15.9	82	11.4	2	4	90	0.00	30.233 
01:10	15.7	15.7	15.7	83	11.5	2	4	90	0.00	30.233 
01:15	15.7	15.7	15.7	83	11.5	1	4	90	0.00	30.211 
01:20	15.7	15.7	15.7	83	11.5	1	4	90	0.00	30.211 
01:25	15.7	15.7	15.7	83	11.5	1	4	90	0.00	30.211 
01:30	15.6	15.6	15.6	83	11.4	0	2	90	0.00	30.228 
01:35	15.6	15.6	15.6	83	11.4	2	3	90	0.00	30.228 
01:40	15.4	15.4	15.4	83	11.2	2	4	90	0.00	30.228 
01:45	15.2	15.2	15.2	83	11.0	1	3	90	0.00	30.209 
01:50	15.1	15.1	15.1	83	10.9	1	2	90	0.00	30.209 
01:55	14.9	14.9	14.9	83	10.7	0	1	90	0.00	30.209 
02:00	14.8	14.8	14.8	83	10.6	0	1	90	0.00	30.214 
02:05	14.4	14.4	14.4	84	10.5	0	1	90	0.00	30.214 
02:10	14.4	14.4	14.4	84	10.5	1	3	90	0.00	30.214 
02:15	14.3	14.3	14.3	84	10.4	1	3	90	0.00	30.211 
02:20	14.3	14.3	14.3	84	10.4	1	3	90	0.00	30.211 
02:25	14.3	14.3	14.3	84	10.4	0	2	90	0.00	30.211 
02:30	14.3	14.3	14.3	84	10.4	0	2	90	0.00	30.218 
02:35	14.1	14.1	14.1	84	10.2	0	2	90	0.00	30.218 
02:40	14.0	14.0	14.0	84	10.1	1	2	90	0.00	30.218 
02:45	14.0	14.0	14.0	84	10.1	0	2	90	0.00	30.217 
02:50	13.8	13.8	13.8	85	10.1	1	2	90	0.00	30.217 
02:55	13.8	13.8	13.8	85	10.1	0	2	90	0.00	30.217 
03:00	13.6	13.6	13.6	85	9.9	0	0	---	0.00	30.221 
03:05	13.5	13.5	13.5	85	9.8	0	1	90	0.00	30.221 
03:10	13.3	13.3	13.3	85	9.7	0	1	90	0.00	30.221 
03:15	13.1	13.1	13.1	85	9.5	0	0	---	0.00	30.225 
03:20	12.9	12.9	12.9	85	9.3	0	1	90	0.00	30.225 
03:25	13.3	13.3	13.3	86	9.9	1	2	90	0.00	30.225 
03:30	13.6	13.6	13.6	86	10.2	0	2	90	0.00	30.208 
03:35	14.0	14.0	14.0	87	10.9	1	3	90	0.00	30.208 
03:40	14.3	14.3	14.3	87	11.2	1	3	90	0.00	30.208 
03:45	14.6	14.6	14.6	86	11.2	1	3	90	0.00	30.194 
03:50	14.9	14.9	14.9	86	11.5	1	3	90	0.00	30.194 
03:55	15.1	15.1	15.1	86	11.7	1	3	90	0.00	30.194 
04:00	15.4	15.4	15.4	86	12.0	2	4	90	0.00	30.183 
04:05	15.6	15.6	15.6	86	12.2	2	4	90	0.00	30.183 
04:10	15.7	15.7	15.7	86	12.3	2	5	90	0.00	30.183 
04:15	15.9	15.9	15.9	86	12.5	2	3	90	0.00	30.176 
04:20	16.2	16.2	16.2	86	12.8	2	4	90	0.00	30.176 
04:25	16.4	16.4	16.4	86	13.0	1	3	90	0.00	30.176 
04:30	16.5	16.5	16.5	86	13.1	1	3	90	0.00	30.177 
04:35	16.9	16.9	16.9	86	13.5	1	3	90	0.00	30.177 
04:40	17.0	17.0	17.0	86	13.6	1	4	90	0.00	30.177 
04:45	17.2	17.2	17.2	85	13.5	2	5	90	0.00	30.176 
04:50	17.3	17.3	17.3	85	13.6	2	4	90	0.00	30.176 
04:55	17.2	17.2	17.2	85	13.5	1	4	90	0.00	30.176 
05:00	17.2	17.2	17.2	85	13.5	1	3	90	0.00	30.169 
05:05	17.2	17.2	17.2	85	13.5	1	3	90	0.00	30.169 
05:10	17.2	17.2	17.2	85	13.5	1	3	90	0.00	30.169 
05:15	17.2	17.2	17.2	85	13.5	0	1	90	0.00	30.171 
05:20	17.2	17.2	17.2	85	13.5	1	2	90	0.00	30.171 
05:25	17.2	17.2	17.2	85	13.5	0	1	90	0.00	30.171 
05:30	17.3	17.3	17.3	86	13.8	0	2	90	0.00	30.181 
05:35	17.3	17.3	17.3	86	13.8	0	1	90	0.00	30.181 
05:40	17.5	17.5	17.5	86	14.0	0	2	90	0.00	30.181 
05:45	17.5	17.5	17.5	86	14.0	0	1	90	0.00	30.179 
05:50	17.5	17.5	17.5	86	14.0	1	3	90	0.00	30.179 
05:55	17.5	17.5	17.5	85	13.8	2	4	90	0.00	30.179 
06:00	17.5	17.5	17.5	86	14.0	2	4	90	0.00	30.172 
06:05	17.5	17.5	17.5	85	13.8	3	5	90	0.00	30.172 
06:10	17.5	17.5	17.5	86	14.0	2	4	90	0.00	30.172 
06:15	17.5	17.5	17.5	86	14.0	1	3	90	0.00	30.171 
06:20	17.5	17.5	17.5	86	14.0	0	2	90	0.00	30.171 
06:25	17.5	17.5	17.5	86	14.0	1	4	90	0.00	30.171 
06:30	17.7	17.7	17.7	86	14.2	2	6	90	0.00	30.154 
06:35	17.7	17.7	17.7	86	14.2	2	4	90	0.00	30.154 
06:40	17.8	17.8	17.8	86	14.3	3	6	90	0.00	30.154 
06:45	18.0	18.0	18.0	86	14.5	2	4	90	0.00	30.149 
06:50	18.1	18.1	18.1	87	14.9	2	6	90	0.00	30.149 
06:55	18.1	18.1	18.1	87	14.9	3	6	90	0.00	30.149 
07:00	18.3	18.3	18.3	87	15.1	2	6	90	0.00	30.146 
07:05	18.4	18.4	18.4	87	15.2	2	6	90	0.00	30.146 
07:10	18.6	18.6	18.6	87	15.4	1	4	90	0.00	30.146 
07:15	18.8	18.8	18.8	87	15.6	2	4	90	0.00	30.150 
07:20	18.8	18.8	18.8	87	15.6	2	5	90	0.00	30.150 
07:25	18.9	18.9	18.9	87	15.7	2	5	68	0.00	30.150 
07:30	19.1	19.1	19.1	87	15.9	3	5	68	0.00	30.144 
07:35	19.2	19.2	19.2	87	16.0	3	6	90	0.00	30.144 
07:40	19.2	19.2	19.2	87	16.0	3	6	90	0.00	30.144 
07:45	19.4	19.4	19.4	87	16.2	2	5	90	0.00	30.143 
07:50	19.7	19.7	19.7	87	16.5	2	4	90	0.00	30.143 
07:55	19.7	19.7	19.7	88	16.7	1	3	90	0.00	30.143 
08:00	19.9	19.9	19.9	87	16.7	2	5	90	0.00	30.146 
08:05	19.9	19.9	19.9	88	16.9	2	4	90	0.00	30.146 
08:10	20.0	20.0	20.0	88	17.0	1	3	90	0.00	30.146 
08:15	20.0	20.0	20.0	88	17.0	2	4	90	0.00	30.144 
08:20	20.2	20.2	20.2	88	17.2	2	5	90	0.00	30.144 
08:25	20.2	20.2	20.2	88	17.2	3	6	90	0.00	30.144 
08:30	20.3	20.3	20.3	88	17.3	3	6	90	0.00	30.136 
08:35	20.5	20.5	20.5	88	17.5	3	5	90	0.00	30.136 
08:40	20.5	20.5	20.5	88	17.5	3	6	90	0.00	30.136 
08:45	20.6	20.6	20.6	88	17.6	3	6	90	0.00	30.131 
08:50	20.6	20.6	20.6	88	17.6	3	6	90	0.00	30.131 
08:55	20.8	20.8	20.8	88	17.8	3	6	90	0.00	30.131 
09:00	21.0	15.4	21.0	88	18.0	4	9	90	0.00	30.128 
09:05	21.1	21.1	21.1	88	18.1	3	5	90	0.00	30.128 
09:10	21.3	21.3	21.3	88	18.3	3	6	112	0.00	30.128 
09:15	21.6	21.6	21.6	89	18.9	3	8	112	0.00	30.126 
09:20	21.8	21.8	21.8	89	19.1	2	4	90	0.00	30.126 
09:25	21.9	21.9	21.9	89	19.2	3	7	90	0.00	30.126 
09:30	22.1	22.1	22.1	89	19.4	3	7	90	0.00	30.122 
09:35	22.2	22.2	22.2	89	19.5	3	6	90	0.00	30.122 
09:40	22.4	22.4	22.4	89	19.7	3	6	90	0.00	30.122 
09:45	22.7	22.7	22.7	89	20.0	2	4	90	0.00	30.122 
09:50	22.9	22.9	22.9	89	20.2	1	3	90	0.00	30.122 
09:55	23.2	23.2	23.2	89	20.4	0	3	90	0.00	30.122 
10:00	23.9	23.9	23.9	91	21.7	1	4	90	0.00	30.129 
10:05	25.1	25.1	25.1	92	23.1	1	4	112	0.00	30.129 
10:10	25.8	25.8	25.8	92	23.8	2	5	90	0.00	30.129 
10:15	26.3	26.3	26.3	92	24.3	2	6	90	0.00	30.117 
10:20	26.6	26.6	26.6	92	24.6	2	5	90	0.00	30.117 
10:25	26.9	26.9	26.9	92	24.9	1	3	90	0.00	30.117 
10:30	27.0	27.0	27.0	92	25.0	1	6	90	0.00	30.120 
10:35	27.2	27.2	27.2	92	25.2	2	5	90	0.00	30.120 
10:40	27.3	27.3	27.3	92	25.3	2	4	112	0.00	30.120 
10:45	27.5	27.5	27.5	92	25.5	2	6	112	0.00	30.109 
10:50	27.5	27.5	27.5	92	25.5	2	5	112	0.00	30.109 
10:55	27.6	27.6	27.6	92	25.6	2	4	90	0.00	30.109 
11:00	27.8	27.8	27.8	92	25.8	2	10	112	0.00	30.109 
11:05	27.9	27.9	27.9	92	25.9	3	11	112	0.00	30.109 
11:10	28.1	28.1	28.1	92	26.1	2	5	112	0.00	30.109 
11:15	28.2	28.2	28.2	92	26.2	1	3	90	0.00	30.106 
11:20	28.4	28.4	28.4	92	26.4	2	5	112	0.00	30.106 
11:25	28.4	28.4	28.4	92	26.4	3	7	90	0.00	30.106 
11:30	28.5	28.5	28.5	92	26.5	2	5	112	0.00	30.104 
11:35	28.7	28.7	28.7	92	26.7	1	4	112	0.00	30.104 
11:40	29.0	29.0	29.0	92	27.0	1	4	112	0.00	30.104 
11:45	29.0	29.0	29.0	92	27.0	2	5	90	0.00	30.092 
11:50	29.1	29.1	29.1	91	26.8	2	4	90	0.00	30.092 
11:55	29.3	29.3	29.3	91	27.0	2	9	90	0.00	30.092 
12:00	29.4	29.4	29.4	91	27.1	1	3	90	0.00	30.089 
12:05	29.5	29.5	29.5	91	27.2	2	5	112	0.00	30.089 
12:10	29.7	29.7	29.7	91	27.4	2	4	90	0.00	30.089 
12:15	29.7	29.7	29.7	91	27.4	2	4	112	0.00	30.071 
12:20	29.8	29.8	29.8	91	27.5	1	3	112	0.00	30.071 
12:25	30.0	30.0	30.0	91	27.7	2	6	90	0.00	30.071 
12:30	30.1	30.1	30.1	91	27.8	1	4	90	0.00	30.053 
12:35	30.1	30.1	30.1	91	27.8	2	6	90	0.00	30.053 
12:40	30.3	30.3	30.3	91	28.0	2	4	90	0.00	30.053 
12:45	30.4	30.4	30.4	91	28.1	1	4	135	0.00	30.039 
12:50	30.4	30.4	30.4	91	28.1	2	5	112	0.00	30.039 
12:55	30.4	30.4	30.4	91	28.1	2	5	112	0.00	30.039 
13:00	30.6	30.6	30.6	91	28.3	2	5	112	0.00	30.026 
13:05	30.7	30.7	30.7	91	28.4	2	4	90	0.00	30.026 
13:10	30.9	30.9	30.9	91	28.6	2	6	112	0.00	30.026 
13:15	30.9	30.9	30.9	91	28.6	2	6	90	0.00	30.016 
13:20	31.0	31.0	31.0	91	28.7	2	5	112	0.00	30.016 
13:25	31.2	31.2	31.2	91	28.9	2	7	68	0.00	30.016 
13:30	31.3	31.3	31.3	92	29.3	1	4	90	0.00	29.995 
13:35	31.5	31.5	31.5	92	29.4	2	6	90	0.00	29.995 
13:40	31.5	31.5	31.5	92	29.4	2	7	112	0.00	29.995 
13:45	31.6	31.6	31.6	92	29.5	1	4	112	0.00	29.993 
13:50	31.8	31.8	31.8	92	29.7	2	5	112	0.00	29.993 
13:55	31.8	31.8	31.8	92	29.7	1	4	90	0.00	29.993 
14:00	31.9	31.9	31.9	92	29.8	1	4	90	0.01	29.985 
14:05	31.9	31.9	31.9	92	29.8	2	7	90	0.00	29.985 
14:10	32.1	32.1	32.1	92	30.0	1	4	112	0.00	29.985 
14:15	32.2	32.2	32.2	92	30.1	1	5	112	0.00	29.986 
14:20	32.4	32.4	32.4	92	30.3	1	6	135	0.00	29.986 
14:25	32.4	32.4	32.4	92	30.3	1	6	90	0.00	29.986 
14:30	32.5	32.5	32.5	92	30.4	2	7	112	0.01	29.978 
14:35	32.5	32.5	32.5	92	30.4	2	4	90	0.00	29.978 
14:40	32.7	32.7	32.7	92	30.6	1	4	90	0.00	29.978 
14:45	32.8	32.8	32.8	92	30.7	1	4	90	0.00	29.974 
14:50	32.9	32.9	32.9	92	30.8	1	4	90	0.00	29.974 
14:55	32.9	32.9	32.9	92	30.8	3	7	112	0.00	29.974 
15:00	33.1	33.1	33.1	92	31.0	2	10	112	0.01	29.976 
15:05	33.2	33.2	33.2	92	31.1	1	4	112	0.00	29.976 
15:10	33.4	33.4	33.4	92	31.3	1	4	135	0.00	29.976 
15:15	33.4	33.4	33.4	92	31.3	1	4	90	0.00	30.000 
15:20	33.4	33.4	33.4	92	31.3	1	3	90	0.00	30.000 
15:25	33.4	33.4	33.4	92	31.3	2	4	90	0.00	30.000 
15:30	33.5	33.5	33.5	92	31.4	2	6	112	0.01	29.990 
15:35	33.4	33.4	33.4	92	31.3	2	5	90	0.00	29.990 
15:40	33.5	33.5	33.5	92	31.4	2	6	90	0.00	29.990 
15:45	33.5	33.5	33.5	92	31.4	1	4	112	0.00	29.980 
15:50	33.5	33.5	33.5	92	31.4	1	6	68	0.00	29.980 
15:55	33.5	33.5	33.5	92	31.4	1	6	90	0.00	29.980 
16:00	33.5	33.5	33.5	92	31.4	2	8	90	0.00	29.964 
16:05	33.4	33.4	33.4	92	31.3	2	6	112	0.01	29.964 
16:10	33.4	33.4	33.4	92	31.3	1	4	68	0.00	29.964 
16:15	33.5	33.5	33.5	92	31.4	2	9	112	0.00	29.973 
16:20	33.5	33.5	33.5	93	31.7	1	4	90	0.00	29.973 
16:25	33.5	33.5	33.5	93	31.7	1	3	90	0.00	29.973 
16:30	33.5	33.5	33.5	93	31.7	2	5	90	0.00	29.971 
16:35	33.5	33.5	33.5	93	31.7	1	4	68	0.00	29.971 
16:40	33.5	33.5	33.5	93	31.7	2	4	90	0.00	29.971 
16:45	33.4	33.4	33.4	93	31.6	2	5	90	0.00	29.957 
16:50	33.4	33.4	33.4	93	31.6	2	5	112	0.00	29.957 
16:55	33.4	33.4	33.4	93	31.6	1	2	90	0.01	29.957 
17:00	33.4	33.4	33.4	93	31.6	2	5	90	0.00	29.954 
17:05	33.2	33.2	33.2	93	31.4	3	7	90	0.00	29.954 
17:10	33.2	33.2	33.2	93	31.4	1	5	90	0.00	29.954 
17:15	33.2	33.2	33.2	93	31.4	1	3	90	0.00	29.951 
17:20	33.2	33.2	33.2	94	31.7	1	4	68	0.00	29.951 
17:25	33.2	33.2	33.2	94	31.7	2	6	112	0.00	29.951 
17:30	33.2	33.2	33.2	94	31.7	3	7	90	0.00	29.941 
17:35	33.2	33.2	33.2	94	31.7	1	4	90	0.00	29.941 
17:40	33.2	33.2	33.2	94	31.7	3	6	90	0.00	29.941 
17:45	33.2	33.2	33.2	94	31.7	3	7	112	0.00	29.937 
17:50	33.2	33.2	33.2	94	31.7	2	6	90	0.00	29.937 
17:55	33.2	33.2	33.2	94	31.7	3	7	90	0.00	29.937 
18:00	33.2	33.2	33.2	94	31.7	2	6	112	0.01	29.928 
18:05	33.2	33.2	33.2	94	31.7	2	6	112	0.00	29.928 
18:10	33.2	33.2	33.2	95	31.9	2	6	90	0.00	29.928 
18:15	33.4	33.4	33.4	95	32.1	2	6	112	0.00	29.927 
18:20	33.4	33.4	33.4	95	32.1	1	6	112	0.00	29.927 
18:25	33.5	33.5	33.5	95	32.2	1	5	90	0.00	29.927 
18:30	33.5	33.5	33.5	95	32.2	1	4	112	0.00	29.937 
18:35	33.7	33.7	33.7	95	32.4	2	6	112	0.00	29.937 
18:40	33.8	33.8	33.8	95	32.5	2	5	112	0.00	29.937 
18:45	33.8	33.8	33.8	95	32.5	1	3	135	0.00	29.937 
18:50	33.8	33.8	33.8	95	32.5	2	5	135	0.00	29.937 
18:55	33.8	33.8	33.8	95	32.5	2	5	90	0.00	29.937 
19:00	33.8	33.8	33.8	95	32.5	1	4	90	0.00	29.924 
19:05	34.0	34.0	34.0	95	32.7	1	3	90	0.01	29.924 
19:10	34.0	34.0	34.0	95	32.7	2	4	90	0.00	29.924 
19:15	34.1	34.1	34.1	95	32.8	1	4	158	0.00	29.921 
19:20	34.1	34.1	34.1	95	32.8	1	3	135	0.00	29.921 
19:25	34.3	34.3	34.3	95	33.0	1	4	135	0.00	29.921 
19:30	34.3	34.3	34.3	96	33.3	2	4	112	0.00	29.919 
19:35	34.4	34.4	34.4	96	33.4	2	3	112	0.00	29.919 
19:40	34.3	34.3	34.3	96	33.3	2	6	112	0.01	29.919 
19:45	34.3	34.3	34.3	95	33.0	2	4	112	0.00	29.907 
19:50	34.4	34.4	34.4	96	33.4	3	5	90	0.00	29.907 
19:55	34.7	34.7	34.7	96	33.7	2	5	112	0.00	29.907 
20:00	34.7	34.7	34.7	96	33.7	1	4	112	0.00	29.905 
20:05	34.7	34.7	34.7	96	33.7	1	5	112	0.00	29.905 
20:10	34.7	34.7	34.7	96	33.7	2	5	112	0.00	29.905 
20:15	34.7	34.7	34.7	96	33.7	0	1	112	0.00	29.902 
20:20	34.9	34.9	34.9	96	33.9	2	4	135	0.01	29.902 
20:25	35.0	35.0	35.0	96	34.0	2	4	135	0.00	29.902 
20:30	35.0	35.0	35.0	96	34.0	1	5	90	0.00	29.890 
20:35	35.2	35.2	35.2	96	34.2	1	3	90	0.00	29.890 
20:40	35.2	35.2	35.2	96	34.2	0	3	90	0.00	29.890 
20:45	35.3	35.3	35.3	96	34.3	1	4	90	0.00	29.884 
20:50	35.8	35.8	35.8	96	34.8	3	7	112	0.00	29.884 
20:55	35.9	35.9	35.9	96	34.9	2	4	112	0.01	29.884 
21:00	36.2	36.2	36.2	96	35.2	2	6	112	0.00	29.872 
21:05	36.3	36.3	36.3	96	35.3	2	5	112	0.00	29.872 
21:10	36.3	36.3	36.3	96	35.3	2	6	112	0.00	29.872 
21:15	36.5	36.5	36.5	96	35.5	1	4	112	0.00	29.856 
21:20	36.5	36.5	36.5	96	35.5	2	6	112	0.00	29.856 
21:25	36.6	36.6	36.6	96	35.6	2	6	90	0.01	29.856 
21:30	36.5	36.5	36.5	96	35.5	2	6	90	0.00	29.851 
21:35	36.6	36.6	36.6	96	35.6	3	7	90	0.00	29.851 
21:40	36.8	36.8	36.8	96	35.8	3	7	90	0.00	29.851 
21:45	36.9	36.9	36.9	96	35.9	1	4	68	0.01	29.838 
21:50	37.0	37.0	37.0	96	36.0	2	6	68	0.00	29.838 
21:55	37.2	37.2	37.2	96	36.2	1	4	90	0.00	29.838 
22:00	37.0	37.0	37.0	96	36.0	2	4	112	0.00	29.825 
22:05	37.0	37.0	37.0	96	36.0	2	4	112	0.01	29.825 
22:10	37.2	37.2	37.2	96	36.2	2	4	112	0.00	29.825 
22:15	37.2	37.2	37.2	96	36.2	2	5	112	0.00	29.804 
22:20	37.0	37.0	37.0	96	36.0	1	3	112	0.01	29.804 
22:25	37.0	37.0	37.0	96	36.0	2	4	112	0.00	29.804 
22:30	37.0	37.0	37.0	96	36.0	2	4	112	0.00	29.799 
22:35	37.0	37.0	37.0	96	36.0	2	3	112	0.00	29.799 
22:40	37.2	37.2	37.2	96	36.2	2	5	112	0.01	29.799 
22:45	37.5	37.5	37.5	96	36.5	2	9	90	0.00	29.787 
22:50	37.3	37.3	37.3	96	36.3	1	3	90	0.00	29.787 
22:55	37.5	37.5	37.5	97	36.7	2	6	90	0.01	29.787 
23:00	37.9	37.9	37.9	97	37.1	2	5	90	0.00	29.772 
23:05	37.9	37.9	37.9	97	37.1	1	4	90	0.00	29.772 
23:10	38.0	38.0	38.0	97	37.2	2	5	90	0.01	29.772 
23:15	38.2	38.2	38.2	97	37.4	2	4	90	0.00	29.759 
23:20	38.0	38.0	38.0	97	37.2	2	4	90	0.00	29.759 
23:25	38.0	38.0	38.0	97	37.2	1	4	90	0.01	29.759 
23:30	38.0	38.0	38.0	97	37.2	1	4	90	0.00	29.750 
23:35	38.2	38.2	38.2	97	37.4	2	4	90	0.00	29.750 
23:40	38.2	38.2	38.2	97	37.4	1	4	90	0.01	29.750 
23:45	38.3	38.3	38.3	97	37.5	2	4	90	0.00	29.739 
23:50	38.3	38.3	38.3	97	37.5	1	3	90	0.00	29.739 
23:55	38.5	38.5	38.5	97	37.7	1	4	90	0.01	29.739 

CoCoRaHS
IN-AL-39
A2 Web Hosting
Creative Commons License
GoDaddy
search engine by freefind advanced

loaded 2018-11-12 15:25:56 • last modified 2010-11-18 10:43:29
Privacy PolicyDisclaimer
• wx.awcolley.com is powered by PmWiki v.2002016 •
• all content (unless otherwise noted) © 2018 A W Colley